Terminal Aerodrome Forecast
Issued by NWS

Home | Current Version | Previous Version | Text Only | Print | Product List | Glossary Off
Versions: 1 2 3 4 5 6 7 8 9 10 11 12 13 14 15 16 17 18 19 20 21

054
FTUS43 KTOP 200322 AAB
TAFMHK
TAF AMD
KMHK 200322Z 2003/2024 15009KT P6SM SCT020 BKN040
     FM200700 18010KT 3SM -SHRA BR OVC011
     FM201100 18008KT 4SM BR OVC008
     FM201700 21011KT P6SM BKN035
     FM202100 25010KT P6SM SCT150=

USA.gov is the U.S. government's official web portal to all federal, state and local government web resources and services.